Zhetygen Airport

Jump to: basic info | weather | comments

Related pages: nearby airports | nearby navaids

Basic information (top)

Location: lon 43.733101, lat 77.119400, elev 1,638 ft / 499 m msl
Status: small_airport

Weather (top)

Current conditions for Almaty Airport 23nm (43km) S (rec'd 2014/07/30 04:30Z):

UAAA 300430Z 36003MPS 9999 FEW100 21/03 Q1013 R88/65D NOSIG

Airport forecast for Almaty Airport 23nm (43km) S (rec'd 2014/07/29 00:18Z):

TAF TAF UAAA 292300Z 3000/3024 16005MPS 9999 BKN100 TX28/3009Z TN10/3001Z 
      BECMG 3005/3006 04005MPS SCT050CB BKN100 
      BECMG 3014/3015 16005MPS

Latest comments (top)

No comments yet for Zhetygen Airport

More... (top)

See also NOTAMs and nearby airports and navaids, or visit the Zhetygen Airport page at the main OurAirports website..